Time;durP1;ratioP1;P1;durP2;ratioP2;P2;SDS_P1;SDS_P2;PMS_P1;PMS_P2;Temp;Humidity;BMP_temperature;BMP_pressure;BME280_temperature;BME280_humidity;BME280_pressure;Samples;Min_cycle;Max_cycle;Signal;HPM_P1;HPM_P2
2022/05/25 00:01:35;;;;;;;0.93;0.70;;;21.90;59.70;;;;;;4889987;28;93902;-64
2022/05/25 00:04:04;;;;;;;1.30;0.75;;;21.90;59.60;;;;;;4890127;28;93666;-64
2022/05/25 00:06:29;;;;;;;1.48;1.08;;;21.90;59.70;;;;;;4890386;28;92742;-65
2022/05/25 00:08:55;;;;;;;2.15;1.08;;;21.90;59.50;;;;;;4890639;28;92943;-65
2022/05/25 00:11:21;;;;;;;1.33;1.00;;;21.90;59.70;;;;;;4890006;28;92925;-65
2022/05/25 00:13:47;;;;;;;1.17;0.90;;;21.80;59.70;;;;;;4890556;28;92450;-64
2022/05/25 00:16:16;;;;;;;0.95;0.70;;;21.80;59.70;;;;;;4890087;28;92189;-64
2022/05/25 00:19:58;;;;;;;2.80;0.90;;;21.80;59.70;;;;;;4890018;28;93065;-65
2022/05/25 00:21:28;;;;;;;2.03;0.90;;;21.80;59.70;;;;;;4889749;28;92681;-65
2022/05/25 00:23:54;;;;;;;1.80;1.15;;;21.80;59.60;;;;;;4890531;28;92884;-64
2022/05/25 00:26:19;;;;;;;1.88;1.00;;;21.80;59.80;;;;;;4889914;28;92043;-65
2022/05/25 00:28:45;;;;;;;1.45;0.75;;;21.80;59.70;;;;;;4889226;28;94140;-65
2022/05/25 00:31:12;;;;;;;1.33;0.90;;;21.80;59.70;;;;;;4891191;28;94262;-64
2022/05/25 00:33:38;;;;;;;3.35;0.80;;;21.80;59.60;;;;;;4893280;28;92526;-65
2022/05/25 00:36:04;;;;;;;1.85;1.00;;;21.80;59.40;;;;;;4893339;28;93146;-64
2022/05/25 00:38:29;;;;;;;1.45;0.90;;;21.80;59.60;;;;;;4893384;28;92745;-65
2022/05/25 00:40:57;;;;;;;1.30;0.73;;;21.80;59.60;;;;;;4892849;28;92880;-65
2022/05/25 00:43:23;;;;;;;1.00;0.80;;;21.80;59.60;;;;;;4893083;28;92201;-65
2022/05/25 00:45:53;;;;;;;1.83;0.73;;;21.80;59.60;;;;;;4893157;28;92234;-65
2022/05/25 00:48:23;;;;;;;0.90;0.60;;;21.80;59.70;;;;;;4892919;28;92974;-65
2022/05/25 00:53:34;;;;;;;0.93;0.70;;;21.80;59.50;;;;;;4892237;28;94047;-64
2022/05/25 00:56:00;;;;;;;0.80;0.63;;;21.70;59.60;;;;;;4891377;28;94161;-64
2022/05/25 00:58:26;;;;;;;1.15;0.70;;;21.70;59.70;;;;;;4906885;28;94381;-65
2022/05/25 01:00:52;;;;;;;1.30;0.80;;;21.80;59.70;;;;;;4892071;28;92784;-65
2022/05/25 01:03:19;;;;;;;1.42;0.73;;;21.80;59.70;;;;;;4892265;28;92944;-65
2022/05/25 01:06:03;;;;;;;0.77;0.75;;;21.70;59.60;;;;;;4891000;28;92897;-65
2022/05/25 01:08:32;;;;;;;1.50;0.95;;;21.80;59.70;;;;;;4890542;28;95250;-66
2022/05/25 01:11:10;;;;;;;1.60;0.80;;;21.70;59.40;;;;;;4893585;28;92765;-66
2022/05/25 01:13:47;;;;;;;1.00;0.90;;;21.80;59.50;;;;;;4893607;28;93120;-65
2022/05/25 01:16:20;;;;;;;1.73;1.13;;;21.80;59.40;;;;;;4893041;28;93050;-65
2022/05/25 01:19:09;;;;;;;2.45;0.82;;;21.70;59.40;;;;;;4891989;28;94062;-64
2022/05/25 01:22:00;;;;;;;0.93;0.70;;;21.70;59.30;;;;;;4890476;28;93823;-64
2022/05/25 01:24:29;;;;;;;1.98;0.90;;;21.70;59.50;;;;;;4891687;28;92856;-65
2022/05/25 01:27:13;;;;;;;1.05;0.80;;;21.70;59.50;;;;;;4890473;28;92890;-65
2022/05/25 01:29:55;;;;;;;1.33;0.88;;;21.80;59.40;;;;;;4892470;28;93675;-64
2022/05/25 01:32:36;;;;;;;1.58;0.82;;;21.70;59.20;;;;;;4891459;28;94018;-65
2022/05/25 01:35:12;;;;;;;1.95;0.80;;;21.70;59.10;;;;;;4892409;28;92866;-64
2022/05/25 01:37:46;;;;;;;1.40;0.80;;;21.70;59.30;;;;;;4892900;28;92320;-65
2022/05/25 01:40:29;;;;;;;1.42;1.00;;;21.70;59.20;;;;;;4892010;28;93282;-64
2022/05/25 01:43:19;;;;;;;1.52;0.93;;;21.70;59.10;;;;;;4890166;28;92662;-65
2022/05/25 01:45:53;;;;;;;1.70;0.85;;;21.70;59.20;;;;;;4891093;28;92925;-65
2022/05/25 01:48:23;;;;;;;0.73;0.60;;;21.70;59.20;;;;;;4892085;28;92751;-64
2022/05/25 01:50:59;;;;;;;1.48;0.80;;;21.70;59.00;;;;;;4892503;28;93377;-64
2022/05/25 01:53:30;;;;;;;1.10;0.80;;;21.70;59.20;;;;;;4892136;28;92843;-63
2022/05/25 01:56:01;;;;;;;1.35;0.80;;;21.70;59.20;;;;;;4892230;28;92538;-64
2022/05/25 01:58:28;;;;;;;1.00;0.77;;;21.70;59.00;;;;;;4891743;28;92716;-64
2022/05/25 02:00:59;;;;;;;0.98;0.80;;;21.70;59.10;;;;;;4891802;28;94063;-64
2022/05/25 02:06:43;;;;;;;1.23;0.60;;;21.70;59.20;;;;;;4891737;28;92914;-64
2022/05/25 02:09:29;;;;;;;1.67;0.90;;;21.60;59.20;;;;;;4891773;28;93300;-65
2022/05/25 02:12:16;;;;;;;0.65;0.60;;;21.60;59.10;;;;;;4890524;28;94146;-62
2022/05/25 02:14:57;;;;;;;0.90;0.80;;;21.70;59.10;;;;;;4890950;28;92836;-62
2022/05/25 02:17:31;;;;;;;0.93;0.65;;;21.70;59.20;;;;;;4890523;28;92666;-63
2022/05/25 02:20:10;;;;;;;1.23;0.52;;;21.70;59.10;;;;;;4891928;28;92948;-63
2022/05/25 02:22:39;;;;;;;0.90;0.77;;;21.70;59.20;;;;;;4891078;28;93180;-63
2022/05/25 02:25:27;;;;;;;1.20;0.95;;;21.70;59.10;;;;;;4891197;28;93139;-63
2022/05/25 02:28:00;;;;;;;1.27;1.10;;;21.70;59.00;;;;;;4892373;28;92308;-63
2022/05/25 02:30:29;;;;;;;1.95;0.80;;;21.70;59.10;;;;;;4892367;28;91893;-62
2022/05/25 02:33:05;;;;;;;0.90;0.77;;;21.60;59.10;;;;;;4891712;28;93012;-63
2022/05/25 02:35:34;;;;;;;0.75;0.60;;;21.60;59.20;;;;;;4891388;28;92859;-63
2022/05/25 02:38:04;;;;;;;1.55;0.82;;;21.60;59.00;;;;;;4891550;28;93494;-63
2022/05/25 02:40:32;;;;;;;5.40;1.00;;;21.60;59.00;;;;;;4891194;28;93260;-62
2022/05/25 02:42:57;;;;;;;1.17;0.77;;;21.60;59.00;;;;;;4891559;28;93647;-62
2022/05/25 02:45:23;;;;;;;1.10;0.75;;;21.60;59.10;;;;;;4891655;28;93086;-63
2022/05/25 02:47:50;;;;;;;1.05;0.90;;;21.60;59.00;;;;;;4891703;28;92685;-64
2022/05/25 02:50:16;;;;;;;0.88;0.80;;;21.60;59.00;;;;;;4889991;28;92626;-63
2022/05/25 02:52:42;;;;;;;0.73;0.70;;;21.60;58.90;;;;;;4890465;28;93112;-63
2022/05/25 02:55:08;;;;;;;0.73;0.60;;;21.60;58.90;;;;;;4891128;28;92167;-62
2022/05/25 02:57:34;;;;;;;1.15;0.70;;;21.60;58.80;;;;;;4891543;28;92117;-62
2022/05/25 03:00:00;;;;;;;0.82;0.65;;;21.60;59.00;;;;;;4891600;28;92807;-63
2022/05/25 03:02:26;;;;;;;1.00;0.63;;;21.60;58.90;;;;;;4889046;28;94340;-63
2022/05/25 03:04:51;;;;;;;0.98;0.73;;;21.60;59.00;;;;;;4890111;28;93672;-62
2022/05/25 03:07:17;;;;;;;0.88;0.60;;;21.60;58.80;;;;;;4890706;28;92477;-62
2022/05/25 03:09:43;;;;;;;1.23;0.93;;;21.60;59.00;;;;;;4889327;28;93093;-63
2022/05/25 03:12:09;;;;;;;1.50;1.05;;;21.60;59.00;;;;;;4891127;28;93140;-63
2022/05/25 03:14:36;;;;;;;1.13;0.93;;;21.60;59.10;;;;;;4890539;28;94187;-63
2022/05/25 03:17:12;;;;;;;1.27;0.80;;;21.60;59.00;;;;;;4891692;28;92280;-63
2022/05/25 03:19:41;;;;;;;1.15;0.80;;;21.60;59.10;;;;;;4892323;28;91299;-64
2022/05/25 03:22:07;;;;;;;0.70;0.70;;;21.50;59.00;;;;;;4890564;28;93200;-63
2022/05/25 03:24:33;;;;;;;0.70;0.70;;;21.50;59.00;;;;;;4889918;28;95495;-62
2022/05/25 03:26:59;;;;;;;1.20;0.77;;;21.50;59.10;;;;;;4890679;28;92954;-63
2022/05/25 03:29:25;;;;;;;1.00;0.90;;;21.50;59.00;;;;;;4890750;28;92554;-63
2022/05/25 03:31:51;;;;;;;0.80;0.70;;;21.50;59.00;;;;;;4890879;28;93178;-63
2022/05/25 03:34:17;;;;;;;1.38;0.98;;;21.50;58.90;;;;;;4890752;28;92861;-63
2022/05/25 03:36:44;;;;;;;1.45;0.88;;;21.60;58.90;;;;;;4891150;28;93150;-63
2022/05/25 03:39:10;;;;;;;0.93;0.80;;;21.50;58.80;;;;;;4890978;28;93071;-62
2022/05/25 03:41:35;;;;;;;0.82;0.77;;;21.50;58.80;;;;;;4890824;28;93292;-63
2022/05/25 03:44:02;;;;;;;1.10;1.00;;;21.50;58.90;;;;;;4890820;28;92871;-62
2022/05/25 03:46:27;;;;;;;0.82;0.80;;;21.50;58.70;;;;;;4891140;28;92041;-63
2022/05/25 03:48:53;;;;;;;1.58;1.00;;;21.50;58.70;;;;;;4890557;28;92951;-62
2022/05/25 03:51:19;;;;;;;0.63;0.63;;;21.50;58.80;;;;;;4890335;28;94099;-61
2022/05/25 03:53:44;;;;;;;1.00;0.75;;;21.50;58.70;;;;;;4890672;28;93770;-63
2022/05/25 03:56:10;;;;;;;0.73;0.70;;;21.50;58.60;;;;;;4890649;28;93010;-62
2022/05/25 03:58:36;;;;;;;1.35;0.82;;;21.50;58.70;;;;;;4890634;28;93024;-63
2022/05/25 04:01:01;;;;;;;0.88;0.57;;;21.50;58.80;;;;;;4889452;28;93172;-63
2022/05/25 04:03:27;;;;;;;0.90;0.70;;;21.50;58.70;;;;;;4888766;28;92729;-63
2022/05/25 04:05:55;;;;;;;0.98;0.90;;;21.50;58.70;;;;;;4891955;28;92745;-62
2022/05/25 04:08:21;;;;;;;0.70;0.70;;;21.50;58.60;;;;;;4892512;28;92438;-64
2022/05/25 04:10:46;;;;;;;1.10;1.00;;;21.40;58.60;;;;;;4892919;28;93240;-62
2022/05/25 04:13:12;;;;;;;0.77;0.68;;;21.50;58.70;;;;;;4893165;28;92530;-63
2022/05/25 04:15:37;;;;;;;2.22;1.08;;;21.50;58.60;;;;;;4891784;28;93592;-62
2022/05/25 04:18:04;;;;;;;2.75;1.00;;;21.50;58.60;;;;;;4893420;28;92982;-63
2022/05/25 04:20:31;;;;;;;2.03;0.70;;;21.50;58.70;;;;;;4892419;28;95164;-63
2022/05/25 04:22:57;;;;;;;0.80;0.75;;;21.50;58.70;;;;;;4893997;28;92885;-63
2022/05/25 04:25:24;;;;;;;1.20;0.88;;;21.50;58.80;;;;;;4893342;28;92287;-63
2022/05/25 04:27:52;;;;;;;1.02;0.80;;;21.50;58.70;;;;;;4892823;28;92304;-64
2022/05/25 04:30:21;;;;;;;1.63;0.88;;;21.50;58.70;;;;;;4892600;28;92675;-63
2022/05/25 04:32:46;;;;;;;1.10;0.70;;;21.50;58.60;;;;;;4893486;28;92813;-62
2022/05/25 04:35:14;;;;;;;1.05;0.73;;;21.50;58.70;;;;;;4893814;28;93149;-63
2022/05/25 04:37:48;;;;;;;2.15;1.00;;;21.50;58.50;;;;;;4892685;28;92968;-63
2022/05/25 04:40:17;;;;;;;1.92;1.23;;;21.50;58.50;;;;;;4892492;28;93956;-63
2022/05/25 04:42:43;;;;;;;2.30;0.90;;;21.50;58.40;;;;;;4892248;28;93234;-63
2022/05/25 04:45:10;;;;;;;0.93;0.82;;;21.50;58.60;;;;;;4892316;28;92418;-64
2022/05/25 04:47:40;;;;;;;1.45;0.80;;;21.50;58.50;;;;;;4893553;28;92603;-62
2022/05/25 04:50:07;;;;;;;0.70;0.70;;;21.50;58.50;;;;;;4892810;28;93014;-62
2022/05/25 04:52:34;;;;;;;0.90;0.70;;;21.50;58.60;;;;;;4891853;28;92079;-63
2022/05/25 04:55:00;;;;;;;1.20;0.82;;;21.50;58.60;;;;;;4892269;28;92835;-63
2022/05/25 04:57:27;;;;;;;0.95;0.80;;;21.60;58.70;;;;;;4891705;28;91305;-63
2022/05/25 04:59:58;;;;;;;1.23;0.90;;;21.50;58.60;;;;;;4906522;28;95760;-63
2022/05/25 05:02:25;;;;;;;0.98;0.70;;;21.60;58.70;;;;;;4892153;28;93174;-63
2022/05/25 05:04:51;;;;;;;1.33;0.80;;;21.60;58.50;;;;;;4892324;28;93579;-62
2022/05/25 05:07:17;;;;;;;0.75;0.68;;;21.60;58.50;;;;;;4892209;28;92918;-62
2022/05/25 05:09:45;;;;;;;0.88;0.63;;;21.60;58.50;;;;;;4891804;28;93514;-63
2022/05/25 05:12:12;;;;;;;1.00;0.80;;;21.60;58.50;;;;;;4891532;28;92824;-64
2022/05/25 05:14:37;;;;;;;1.00;0.85;;;21.60;58.80;;;;;;4892223;28;92948;-64
2022/05/25 05:17:06;;;;;;;1.38;0.85;;;21.60;58.70;;;;;;4889478;28;92671;-64
2022/05/25 05:19:32;;;;;;;1.00;0.80;;;21.70;58.70;;;;;;4891939;28;93332;-63
2022/05/25 05:21:58;;;;;;;1.73;0.90;;;21.70;58.80;;;;;;4892883;28;92784;-64
2022/05/25 05:24:25;;;;;;;0.70;0.70;;;21.70;58.70;;;;;;4893132;28;92768;-63
2022/05/25 05:26:50;;;;;;;0.80;0.73;;;21.70;58.60;;;;;;4892855;28;92985;-63
2022/05/25 05:29:16;;;;;;;0.73;0.70;;;21.70;59.40;;;;;;4892283;28;94054;-63
2022/05/25 05:31:42;;;;;;;0.98;0.70;;;21.70;58.80;;;;;;4892675;28;92992;-63
2022/05/25 05:34:07;;;;;;;1.30;0.82;;;21.70;58.70;;;;;;4893206;28;92449;-63
2022/05/25 05:36:51;;;;;;;1.17;0.80;;;21.70;58.80;;;;;;4892505;28;92078;-63
2022/05/25 05:39:18;;;;;;;1.20;0.90;;;21.80;58.80;;;;;;4891338;28;92585;-63
2022/05/25 05:42:03;;;;;;;0.75;0.75;;;21.70;58.90;;;;;;4891190;28;93137;-63
2022/05/25 05:44:34;;;;;;;0.80;0.60;;;21.70;58.80;;;;;;4892363;28;92626;-63
2022/05/25 05:47:02;;;;;;;0.70;0.63;;;21.80;58.90;;;;;;4891609;28;92228;-62
2022/05/25 05:49:28;;;;;;;0.93;0.70;;;21.70;58.80;;;;;;4890902;28;94350;-63
2022/05/25 05:51:54;;;;;;;0.88;0.80;;;21.80;58.90;;;;;;4892264;28;92198;-64
2022/05/25 05:54:20;;;;;;;1.15;0.93;;;21.80;58.90;;;;;;4892292;28;93515;-63
2022/05/25 05:56:46;;;;;;;1.27;0.80;;;21.80;59.00;;;;;;4892305;28;92420;-63
2022/05/25 05:59:11;;;;;;;0.80;0.70;;;21.80;59.00;;;;;;4892154;28;93047;-63
2022/05/25 06:01:37;;;;;;;1.10;0.63;;;21.80;59.10;;;;;;4891884;28;93079;-64
2022/05/25 06:04:03;;;;;;;1.67;0.90;;;21.80;59.10;;;;;;4891693;28;92025;-63
2022/05/25 06:06:29;;;;;;;0.60;0.60;;;21.80;59.20;;;;;;4891319;28;92037;-63
2022/05/25 06:08:56;;;;;;;1.38;0.70;;;21.80;59.10;;;;;;4891261;28;93050;-63
2022/05/25 06:11:23;;;;;;;1.10;0.90;;;21.80;59.20;;;;;;4891961;28;92277;-64
2022/05/25 06:13:49;;;;;;;1.15;0.80;;;21.80;59.20;;;;;;4891937;28;92202;-62
2022/05/25 06:21:43;;;;;;;1.30;1.00;;;21.80;59.40;;;;;;4891735;28;92820;-63
2022/05/25 06:24:09;;;;;;;3.25;0.90;;;21.80;59.40;;;;;;4892319;28;92166;-64
2022/05/25 06:26:35;;;;;;;2.75;1.35;;;21.80;55.90;;;;;;4888358;28;92980;-65
2022/05/25 06:29:02;;;;;;;7.28;1.67;;;21.80;55.10;;;;;;4888667;28;94110;-63
2022/05/25 06:31:28;;;;;;;6.88;1.45;;;21.80;54.80;;;;;;4891024;28;93004;-64
2022/05/25 06:33:55;;;;;;;7.35;2.28;;;21.80;54.50;;;;;;4891781;28;92724;-63
2022/05/25 06:36:39;;;;;;;7.28;1.92;;;21.80;53.90;;;;;;4890311;28;92144;-64
2022/05/25 06:39:04;;;;;;;4.40;1.70;;;21.80;54.30;;;;;;4893055;28;92450;-64
2022/05/25 06:41:30;;;;;;;5.75;2.38;;;21.80;54.00;;;;;;4891629;28;93026;-64
2022/05/25 06:43:56;;;;;;;11.90;2.40;;;21.80;54.10;;;;;;4890928;28;93815;-65
2022/05/25 06:46:22;;;;;;;9.27;3.13;;;21.80;54.10;;;;;;4891853;28;92726;-63
2022/05/25 06:48:50;;;;;;;9.57;2.70;;;21.80;54.20;;;;;;4889746;28;92644;-64
2022/05/25 06:51:19;;;;;;;8.88;2.95;;;21.80;53.80;;;;;;4890820;28;91986;-64
2022/05/25 06:53:45;;;;;;;7.13;2.20;;;21.80;53.70;;;;;;4891607;28;93152;-63
2022/05/25 06:56:10;;;;;;;12.05;3.08;;;21.80;53.90;;;;;;4890014;28;92516;-63
2022/05/25 06:58:36;;;;;;;9.27;2.38;;;21.80;53.30;;;;;;4891174;28;94734;-63
2022/05/25 07:01:03;;;;;;;7.63;2.50;;;21.80;52.70;;;;;;4891554;28;92328;-64
2022/05/25 07:03:30;;;;;;;8.30;2.03;;;21.80;52.50;;;;;;4892207;28;92933;-65
2022/05/25 07:05:56;;;;;;;8.32;2.00;;;21.80;52.60;;;;;;4894068;28;93315;-64
2022/05/25 07:08:21;;;;;;;4.35;1.83;;;21.70;52.20;;;;;;4892125;28;94080;-64
2022/05/25 07:10:47;;;;;;;4.90;1.73;;;21.80;51.90;;;;;;4891392;28;94271;-64
2022/05/25 07:13:14;;;;;;;6.93;1.90;;;21.70;51.50;;;;;;4891756;28;92560;-64
2022/05/25 07:15:40;;;;;;;4.80;1.88;;;21.70;51.70;;;;;;4882824;28;92885;-64
2022/05/25 07:18:06;;;;;;;8.45;1.80;;;21.80;51.30;;;;;;4889660;28;93272;-64
2022/05/25 07:20:32;;;;;;;4.78;1.60;;;21.70;51.20;;;;;;4890243;28;92523;-64
2022/05/25 07:22:58;;;;;;;5.68;1.58;;;21.70;51.10;;;;;;4891153;28;92387;-65
2022/05/25 07:25:23;;;;;;;5.20;1.45;;;21.80;51.10;;;;;;4890657;28;92182;-64
2022/05/25 07:27:49;;;;;;;4.15;1.40;;;21.70;51.00;;;;;;4890023;28;93268;-64
2022/05/25 07:30:16;;;;;;;7.22;1.77;;;21.70;51.10;;;;;;4889598;28;92292;-65
2022/05/25 07:32:42;;;;;;;8.13;1.60;;;21.70;51.00;;;;;;4890475;28;93747;-66
2022/05/25 07:35:10;;;;;;;4.07;1.77;;;21.70;51.10;;;;;;4890239;28;92537;-64
2022/05/25 07:37:39;;;;;;;4.50;1.20;;;21.70;50.80;;;;;;4889531;28;93086;-63
2022/05/25 07:40:12;;;;;;;3.20;1.58;;;21.80;51.10;;;;;;4889379;28;94555;-64
2022/05/25 07:42:42;;;;;;;2.33;1.00;;;21.70;50.70;;;;;;4890473;28;92555;-65
2022/05/25 07:45:08;;;;;;;13.55;3.33;;;21.70;50.60;;;;;;4889754;28;92549;-65
2022/05/25 07:47:34;;;;;;;5.22;1.48;;;21.80;50.50;;;;;;4858635;28;93052;-66
2022/05/25 07:50:00;;;;;;;11.05;2.53;;;21.80;50.40;;;;;;4887626;28;97217;-65
2022/05/25 07:52:29;;;;;;;12.60;2.97;;;21.80;50.80;;;;;;4885185;28;92606;-66
2022/05/25 07:54:56;;;;;;;23.50;3.75;;;21.80;50.30;;;;;;4877802;28;92076;-65
2022/05/25 07:57:22;;;;;;;13.57;2.90;;;21.80;50.10;;;;;;4885962;28;97465;-63
2022/05/25 07:59:47;;;;;;;14.68;2.53;;;21.80;50.00;;;;;;4876743;28;93897;-64
2022/05/25 08:07:49;;;;;;;7.20;1.85;;;21.80;49.80;;;;;;4870980;28;92742;-64
2022/05/25 08:10:22;;;;;;;7.45;1.90;;;21.80;49.50;;;;;;4874833;28;93090;-65
2022/05/25 08:12:49;;;;;;;9.45;2.35;;;21.80;49.70;;;;;;4873690;28;92128;-64
2022/05/25 08:15:16;;;;;;;5.93;2.40;;;21.80;49.60;;;;;;4886983;28;91159;-65
2022/05/25 08:17:43;;;;;;;9.07;2.00;;;21.80;49.50;;;;;;4870331;28;93424;-64
2022/05/25 08:20:10;;;;;;;3.40;1.50;;;21.80;49.70;;;;;;4877893;28;94793;-64
2022/05/25 08:22:37;;;;;;;8.63;1.70;;;21.80;49.70;;;;;;4889644;28;94496;-64
2022/05/25 08:25:04;;;;;;;5.90;1.63;;;21.80;49.90;;;;;;4878911;28;92939;-64
2022/05/25 08:27:31;;;;;;;10.63;1.83;;;21.80;50.00;;;;;;4866100;28;93648;-64
2022/05/25 08:29:58;;;;;;;6.57;1.45;;;21.80;50.20;;;;;;4869964;28;92846;-64
2022/05/25 08:32:23;;;;;;;8.02;1.30;;;21.80;49.80;;;;;;4886440;28;92589;-64
2022/05/25 08:34:49;;;;;;;7.57;2.05;;;21.80;50.20;;;;;;4889816;28;92771;-64
2022/05/25 08:37:15;;;;;;;4.22;1.63;;;21.90;49.90;;;;;;4881260;28;92980;-64
2022/05/25 08:39:40;;;;;;;3.90;1.30;;;21.80;49.90;;;;;;4868364;28;92820;-64
2022/05/25 08:42:14;;;;;;;2.90;1.17;;;21.90;50.00;;;;;;4870480;28;92152;-64
2022/05/25 08:44:43;;;;;;;10.00;1.25;;;21.90;50.30;;;;;;4871336;28;92429;-63
2022/05/25 08:47:10;;;;;;;6.83;1.27;;;21.90;50.30;;;;;;4869581;28;93814;-64
2022/05/25 08:49:39;;;;;;;3.83;1.27;;;21.90;50.10;;;;;;4881135;28;94018;-64
2022/05/25 08:52:45;;;;;;;15.10;2.25;;;21.90;50.00;;;;;;4888160;28;92549;-65
2022/05/25 08:55:12;;;;;;;8.23;1.70;;;21.90;50.10;;;;;;4875598;28;93090;-64
2022/05/25 08:57:46;;;;;;;10.38;1.60;;;21.90;49.90;;;;;;4873919;28;92703;-64
2022/05/25 09:00:16;;;;;;;4.57;1.10;;;21.90;49.60;;;;;;4880021;28;93197;-65
2022/05/25 09:02:52;;;;;;;7.20;1.55;;;21.90;49.20;;;;;;4874086;28;92971;-64
2022/05/25 09:05:32;;;;;;;6.25;1.40;;;21.90;49.40;;;;;;4871599;28;92173;-64
2022/05/25 09:08:04;;;;;;;6.43;1.40;;;21.90;50.40;;;;;;4882076;28;93107;-64
2022/05/25 09:10:38;;;;;;;8.80;1.10;;;22.00;50.70;;;;;;4879954;28;93175;-63
2022/05/25 09:13:14;;;;;;;6.07;0.98;;;21.90;50.60;;;;;;4887700;28;93565;-62
2022/05/25 09:18:37;;;;;;;4.68;1.30;;;21.90;50.90;;;;;;4880839;28;92840;-63
2022/05/25 09:21:05;;;;;;;4.20;0.98;;;22.00;50.90;;;;;;4876070;28;95754;-62
2022/05/25 09:23:31;;;;;;;4.63;1.00;;;22.00;50.60;;;;;;4884929;28;92143;-63
2022/05/25 09:25:57;;;;;;;2.92;1.10;;;21.90;50.70;;;;;;4881899;28;92535;-64
2022/05/25 09:28:29;;;;;;;2.63;0.77;;;22.00;50.60;;;;;;4883050;28;92756;-65
2022/05/25 09:30:57;;;;;;;5.28;1.20;;;21.90;50.30;;;;;;4887555;28;92836;-63
2022/05/25 09:33:50;;;;;;;2.83;0.73;;;21.90;50.30;;;;;;4892088;28;92035;-64
2022/05/25 09:36:28;;;;;;;2.42;0.80;;;21.90;50.10;;;;;;4891525;28;93052;-64
2022/05/25 09:38:56;;;;;;;2.55;0.98;;;21.90;49.90;;;;;;4891233;28;93551;-65
2022/05/25 09:41:25;;;;;;;2.67;0.83;;;22.00;49.70;;;;;;4891346;28;93993;-64
2022/05/25 09:43:56;;;;;;;2.43;0.60;;;22.00;49.80;;;;;;4871639;28;92011;-65
2022/05/25 09:46:30;;;;;;;4.78;0.85;;;22.00;49.80;;;;;;4882130;28;93830;-65
2022/05/25 09:49:00;;;;;;;2.55;0.77;;;21.90;49.90;;;;;;4886448;28;95071;-64
2022/05/25 09:51:41;;;;;;;4.15;0.70;;;21.90;49.70;;;;;;4879799;28;92659;-63
2022/05/25 09:54:33;;;;;;;2.45;0.60;;;22.00;49.90;;;;;;4883109;28;93348;-65
2022/05/25 09:57:19;;;;;;;2.22;0.82;;;21.90;49.60;;;;;;4880122;28;92076;-64
2022/05/25 09:59:52;;;;;;;3.58;0.68;;;21.90;49.60;;;;;;4877518;28;94612;-64
2022/05/25 10:05:32;;;;;;;1.52;0.60;;;22.00;49.50;;;;;;2905739;26;94391;-65
2022/05/25 10:08:07;;;;;;;2.40;0.70;;;22.00;49.70;;;;;;4910858;28;92931;-65
2022/05/25 10:10:52;;;;;;;3.92;0.70;;;21.90;49.20;;;;;;4909601;28;93350;-64
2022/05/25 10:13:23;;;;;;;2.80;0.90;;;21.90;49.50;;;;;;4910165;28;93283;-64
2022/05/25 10:15:52;;;;;;;2.90;0.70;;;21.90;49.30;;;;;;4910665;28;93137;-65
2022/05/25 10:18:37;;;;;;;5.47;0.88;;;21.90;49.50;;;;;;4908937;28;92229;-64
2022/05/25 10:21:09;;;;;;;3.45;0.93;;;21.90;49.40;;;;;;4907216;28;93133;-65
2022/05/25 10:23:41;;;;;;;1.92;0.52;;;21.90;49.30;;;;;;4908473;28;92661;-64
2022/05/25 10:26:32;;;;;;;3.22;0.80;;;22.00;48.70;;;;;;4909670;28;93662;-65
2022/05/25 10:29:05;;;;;;;1.98;0.68;;;22.00;49.30;;;;;;4905797;28;92803;-65
2022/05/25 10:37:13;;;;;;;8.88;1.30;;;22.00;49.80;;;;;;4909344;28;92466;-64
2022/05/25 10:39:58;;;;;;;2.22;0.75;;;22.00;49.60;;;;;;4909476;28;92581;-64
2022/05/25 10:42:37;;;;;;;4.85;0.85;;;22.00;50.10;;;;;;4907376;28;94608;-65
2022/05/25 10:45:18;;;;;;;8.00;0.95;;;22.00;50.40;;;;;;4909600;28;94278;-64
2022/05/25 10:47:50;;;;;;;10.13;1.13;;;22.10;50.50;;;;;;4908441;28;92458;-64
2022/05/25 10:50:32;;;;;;;6.55;1.27;;;22.10;50.50;;;;;;4907648;28;92105;-64
2022/05/25 10:53:28;;;;;;;14.60;1.50;;;22.10;50.10;;;;;;4908251;28;92871;-64
2022/05/25 10:56:13;;;;;;;7.82;1.13;;;22.10;50.60;;;;;;4908268;28;92892;-65
2022/05/25 10:58:51;;;;;;;6.15;1.13;;;22.10;50.40;;;;;;4908506;28;93634;-64
2022/05/25 11:01:28;;;;;;;6.85;1.20;;;22.10;50.40;;;;;;4908187;28;92848;-64
2022/05/25 11:03:59;;;;;;;10.80;1.55;;;22.10;50.50;;;;;;4908618;28;93250;-64
2022/05/25 11:06:56;;;;;;;7.18;1.00;;;22.10;50.70;;;;;;4908270;28;92306;-64
2022/05/25 11:09:52;;;;;;;5.30;1.00;;;22.10;50.30;;;;;;4907847;28;92831;-64
2022/05/25 11:12:27;;;;;;;4.93;1.27;;;22.10;50.90;;;;;;4908489;28;92532;-64
2022/05/25 11:15:14;;;;;;;7.82;1.30;;;22.10;51.00;;;;;;4908446;28;93099;-63
2022/05/25 11:18:18;;;;;;;2.60;0.85;;;22.00;50.90;;;;;;4909437;28;93618;-64
2022/05/25 11:20:56;;;;;;;9.75;1.10;;;22.10;50.70;;;;;;4886428;28;92509;-65
2022/05/25 11:23:43;;;;;;;5.80;1.42;;;22.00;50.10;;;;;;4886276;28;93720;-65
2022/05/25 11:26:30;;;;;;;3.25;1.05;;;22.10;49.60;;;;;;4901114;28;94127;-64
2022/05/25 11:29:11;;;;;;;3.15;1.15;;;22.00;49.30;;;;;;4906666;28;98397;-64
2022/05/25 11:31:49;;;;;;;6.85;1.05;;;22.00;47.00;;;;;;4909746;28;92499;-63
2022/05/25 11:34:45;;;;;;;5.53;0.98;;;22.00;47.30;;;;;;4909543;28;93226;-62
2022/05/25 11:37:49;;;;;;;14.23;1.40;;;22.00;47.70;;;;;;4909184;28;94686;-65
2022/05/25 11:40:48;;;;;;;6.97;1.00;;;22.00;49.40;;;;;;4908371;28;92309;-63
2022/05/25 11:43:19;;;;;;;5.50;1.38;;;22.00;50.40;;;;;;4908976;28;92171;-63
2022/05/25 11:46:19;;;;;;;6.28;0.90;;;22.00;49.10;;;;;;4909011;28;92527;-63
2022/05/25 11:49:18;;;;;;;3.78;1.00;;;22.00;49.50;;;;;;4907568;28;92607;-63
2022/05/25 11:52:01;;;;;;;4.05;1.25;;;22.00;49.50;;;;;;4896479;28;92812;-63
2022/05/25 11:54:58;;;;;;;4.05;1.00;;;22.00;49.80;;;;;;4908486;28;93077;-63
2022/05/25 11:57:35;;;;;;;4.82;1.00;;;22.00;49.70;;;;;;4908319;28;92635;-63
2022/05/25 12:00:36;;;;;;;6.80;1.25;;;22.00;49.90;;;;;;4908661;28;92714;-62
2022/05/25 12:03:10;;;;;;;3.97;0.95;;;22.00;49.80;;;;;;4903769;28;92534;-63
2022/05/25 12:06:35;;;;;;;6.15;1.52;;;22.00;49.90;;;;;;4906553;28;93086;-63
2022/05/25 12:09:19;;;;;;;2.95;0.80;;;22.00;49.90;;;;;;4857121;28;92750;-63
2022/05/25 12:11:55;;;;;;;6.15;1.38;;;22.00;50.10;;;;;;4886119;28;93290;-63
2022/05/25 12:14:37;;;;;;;3.70;1.05;;;22.00;50.20;;;;;;4904096;28;92812;-63
2022/05/25 12:17:07;;;;;;;5.38;0.90;;;22.00;50.10;;;;;;4908647;28;93061;-63
2022/05/25 12:19:36;;;;;;;4.18;1.10;;;22.00;50.10;;;;;;4908428;28;93096;-63
2022/05/25 12:22:08;;;;;;;3.08;0.90;;;22.00;50.40;;;;;;4907612;28;95108;-63
2022/05/25 12:24:40;;;;;;;4.47;0.93;;;22.00;50.00;;;;;;4906716;28;96572;-63
2022/05/25 12:27:17;;;;;;;3.70;1.08;;;22.00;50.20;;;;;;4911540;28;92810;-63
2022/05/25 12:29:53;;;;;;;3.17;0.70;;;22.00;50.40;;;;;;4911018;28;92260;-62
2022/05/25 12:32:20;;;;;;;3.05;0.82;;;22.00;50.20;;;;;;4911653;28;92700;-63
2022/05/25 12:34:50;;;;;;;2.83;0.80;;;22.00;50.30;;;;;;4911594;28;92597;-63
2022/05/25 12:37:27;;;;;;;3.30;1.02;;;22.00;50.30;;;;;;4911035;28;92024;-63
2022/05/25 12:40:07;;;;;;;5.45;0.75;;;22.00;50.40;;;;;;4912136;28;91864;-63
2022/05/25 12:42:44;;;;;;;2.47;0.77;;;22.00;50.30;;;;;;4910666;28;93152;-63
2022/05/25 12:48:31;;;;;;;5.05;0.93;;;22.00;50.20;;;;;;4910847;28;92883;-63
2022/05/25 12:51:08;;;;;;;2.78;0.80;;;22.00;50.20;;;;;;4911584;28;93061;-62
2022/05/25 12:53:37;;;;;;;2.40;0.80;;;22.00;50.30;;;;;;4910592;28;92591;-63
2022/05/25 12:56:20;;;;;;;2.67;0.65;;;22.00;50.50;;;;;;4910634;28;93724;-63
2022/05/25 12:58:51;;;;;;;3.33;1.02;;;22.00;50.20;;;;;;4911757;28;92116;-63
2022/05/25 13:01:22;;;;;;;1.33;0.70;;;22.00;50.50;;;;;;4911590;28;92987;-64
2022/05/25 13:03:48;;;;;;;1.27;0.65;;;22.00;50.40;;;;;;4900694;28;97081;-63
2022/05/25 13:06:18;;;;;;;3.88;0.70;;;22.00;50.40;;;;;;4912991;28;92313;-63
2022/05/25 13:08:47;;;;;;;2.63;0.70;;;22.00;47.20;;;;;;4911182;28;93208;-63
2022/05/25 13:11:35;;;;;;;4.30;0.77;;;22.00;46.50;;;;;;4911418;28;93098;-62
2022/05/25 13:14:01;;;;;;;3.47;0.70;;;22.00;46.70;;;;;;4908165;28;96494;-62
2022/05/25 13:16:46;;;;;;;3.78;0.85;;;22.00;46.70;;;;;;4909472;28;93413;-63
2022/05/25 13:19:16;;;;;;;5.47;1.00;;;22.00;46.50;;;;;;4909363;28;92573;-63
2022/05/25 13:22:05;;;;;;;2.28;0.93;;;22.00;46.30;;;;;;4907952;28;93594;-64
2022/05/25 13:24:46;;;;;;;4.95;0.93;;;22.00;46.20;;;;;;4907472;28;92898;-64
2022/05/25 13:27:33;;;;;;;5.90;0.90;;;22.00;46.30;;;;;;4910749;28;93170;-65
2022/05/25 13:30:27;;;;;;;4.70;0.68;;;22.00;46.00;;;;;;4907720;28;92026;-65
2022/05/25 13:32:53;;;;;;;3.83;0.68;;;22.00;45.50;;;;;;4908938;28;91774;-66
2022/05/25 13:35:24;;;;;;;6.60;0.82;;;22.00;45.40;;;;;;4908752;28;93165;-66
2022/05/25 13:37:57;;;;;;;2.08;0.70;;;22.00;45.80;;;;;;4908704;28;92861;-65
2022/05/25 13:40:37;;;;;;;9.18;2.00;;;22.00;45.80;;;;;;4906586;28;94220;-65
2022/05/25 13:43:07;;;;;;;27.98;6.72;;;22.00;45.70;;;;;;4907396;28;93153;-64